sensor_id;sensor_type;location;lat;lon;timestamp;P1;durP1;ratioP1;P2;durP2;ratioP2
40588;SDS011;26297;49.450;6.640;2023-03-21T09:58:50;7.07;;;4.50;;
40588;SDS011;26297;49.450;6.640;2023-03-21T10:08:52;9.05;;;4.50;;
40588;SDS011;26297;49.450;6.640;2023-03-21T10:12:22;9.95;;;6.05;;
40588;SDS011;26297;49.450;6.640;2023-03-21T10:15:39;6.78;;;4.63;;
40588;SDS011;26297;49.450;6.640;2023-03-21T10:18:59;6.07;;;4.10;;
40588;SDS011;26297;49.450;6.640;2023-03-21T10:25:38;6.75;;;4.18;;
40588;SDS011;26297;49.450;6.640;2023-03-21T10:29:25;8.38;;;5.03;;
40588;SDS011;26297;49.450;6.640;2023-03-21T10:40:04;9.65;;;5.85;;
40588;SDS011;26297;49.450;6.640;2023-03-21T10:46:38;8.73;;;6.27;;
40588;SDS011;26297;49.450;6.640;2023-03-21T10:50:04;10.13;;;5.70;;
40588;SDS011;26297;49.450;6.640;2023-03-21T10:53:21;6.63;;;5.50;;
40588;SDS011;26297;49.450;6.640;2023-03-21T10:57:00;6.50;;;4.93;;
40588;SDS011;26297;49.450;6.640;2023-03-21T11:09:53;7.43;;;4.47;;
40588;SDS011;26297;49.450;6.640;2023-03-21T11:13:54;5.47;;;3.30;;
40588;SDS011;26297;49.450;6.640;2023-03-21T11:17:24;5.45;;;4.10;;
40588;SDS011;26297;49.450;6.640;2023-03-21T11:28:39;8.30;;;3.50;;
40588;SDS011;26297;49.450;6.640;2023-03-21T11:32:31;6.68;;;3.60;;
40588;SDS011;26297;49.450;6.640;2023-03-21T11:35:40;7.82;;;4.80;;
40588;SDS011;26297;49.450;6.640;2023-03-21T11:42:52;4.60;;;3.63;;
40588;SDS011;26297;49.450;6.640;2023-03-21T11:46:27;5.55;;;4.07;;
40588;SDS011;26297;49.450;6.640;2023-03-21T12:05:35;5.68;;;3.92;;
40588;SDS011;26297;49.450;6.640;2023-03-21T12:14:18;4.78;;;3.55;;
40588;SDS011;26297;49.450;6.640;2023-03-21T12:41:28;4.25;;;3.40;;
40588;SDS011;26297;49.450;6.640;2023-03-21T12:45:30;4.38;;;2.80;;
40588;SDS011;26297;49.450;6.640;2023-03-21T13:08:02;4.63;;;3.13;;
40588;SDS011;26297;49.450;6.640;2023-03-21T15:39:43;3.45;;;2.22;;
40588;SDS011;26297;49.450;6.640;2023-03-21T15:43:11;3.60;;;1.95;;
40588;SDS011;26297;49.450;6.640;2023-03-21T15:49:56;4.22;;;2.58;;
40588;SDS011;26297;49.450;6.640;2023-03-21T15:53:17;2.97;;;2.15;;
40588;SDS011;26297;49.450;6.640;2023-03-21T15:56:32;3.22;;;2.88;;
40588;SDS011;26297;49.450;6.640;2023-03-21T15:59:39;3.47;;;2.10;;
40588;SDS011;26297;49.450;6.640;2023-03-21T16:02:55;2.35;;;1.92;;
40588;SDS011;26297;49.450;6.640;2023-03-21T16:09:26;2.40;;;2.20;;
40588;SDS011;26297;49.450;6.640;2023-03-21T16:12:49;2.70;;;2.03;;
40588;SDS011;26297;49.450;6.640;2023-03-21T16:16:00;5.38;;;2.40;;
40588;SDS011;26297;49.450;6.640;2023-03-21T16:19:18;3.22;;;2.28;;
40588;SDS011;26297;49.450;6.640;2023-03-21T16:22:23;3.47;;;2.15;;
40588;SDS011;26297;49.450;6.640;2023-03-21T16:25:30;3.65;;;2.13;;
40588;SDS011;26297;49.450;6.640;2023-03-21T16:28:51;3.25;;;2.40;;
40588;SDS011;26297;49.450;6.640;2023-03-21T16:31:55;2.45;;;1.98;;
40588;SDS011;26297;49.450;6.640;2023-03-21T16:35:05;3.83;;;1.80;;
40588;SDS011;26297;49.450;6.640;2023-03-21T16:38:17;4.85;;;2.20;;
40588;SDS011;26297;49.450;6.640;2023-03-21T16:41:27;2.20;;;2.00;;
40588;SDS011;26297;49.450;6.640;2023-03-21T18:45:51;4.80;;;2.70;;
40588;SDS011;26297;49.450;6.640;2023-03-21T18:48:59;2.40;;;2.20;;
40588;SDS011;26297;49.450;6.640;2023-03-21T18:52:03;2.40;;;1.92;;
40588;SDS011;26297;49.450;6.640;2023-03-21T18:55:13;1.88;;;1.50;;
40588;SDS011;26297;49.450;6.640;2023-03-21T18:58:28;2.58;;;1.88;;
40588;SDS011;26297;49.450;6.640;2023-03-21T19:01:56;3.20;;;1.60;;
40588;SDS011;26297;49.450;6.640;2023-03-21T19:05:09;2.70;;;1.90;;
40588;SDS011;26297;49.450;6.640;2023-03-21T19:08:16;1.63;;;1.52;;
40588;SDS011;26297;49.450;6.640;2023-03-21T19:11:32;2.00;;;1.80;;
40588;SDS011;26297;49.450;6.640;2023-03-21T19:14:36;1.83;;;1.55;;
40588;SDS011;26297;49.450;6.640;2023-03-21T19:17:39;1.75;;;1.42;;
40588;SDS011;26297;49.450;6.640;2023-03-21T19:20:46;2.63;;;1.75;;
40588;SDS011;26297;49.450;6.640;2023-03-21T19:23:55;3.83;;;2.07;;
40588;SDS011;26297;49.450;6.640;2023-03-21T19:27:04;6.82;;;3.63;;
40588;SDS011;26297;49.450;6.640;2023-03-21T19:30:08;8.43;;;4.65;;
40588;SDS011;26297;49.450;6.640;2023-03-21T19:33:15;7.38;;;5.03;;
40588;SDS011;26297;49.450;6.640;2023-03-21T19:36:20;10.75;;;5.80;;
40588;SDS011;26297;49.450;6.640;2023-03-21T19:39:24;11.77;;;5.30;;
40588;SDS011;26297;49.450;6.640;2023-03-21T19:42:29;4.18;;;2.65;;
40588;SDS011;26297;49.450;6.640;2023-03-21T19:45:34;2.58;;;2.10;;
40588;SDS011;26297;49.450;6.640;2023-03-21T19:48:42;3.00;;;1.73;;
40588;SDS011;26297;49.450;6.640;2023-03-21T19:51:47;2.90;;;1.58;;
40588;SDS011;26297;49.450;6.640;2023-03-21T19:55:22;4.93;;;1.65;;
40588;SDS011;26297;49.450;6.640;2023-03-21T19:59:00;3.10;;;1.67;;
40588;SDS011;26297;49.450;6.640;2023-03-21T20:06:52;5.55;;;1.50;;
40588;SDS011;26297;49.450;6.640;2023-03-21T20:10:44;3.10;;;1.23;;
40588;SDS011;26297;49.450;6.640;2023-03-21T20:26:31;2.22;;;1.27;;
40588;SDS011;26297;49.450;6.640;2023-03-21T20:29:53;3.20;;;1.50;;
40588;SDS011;26297;49.450;6.640;2023-03-21T20:33:25;1.65;;;1.20;;
40588;SDS011;26297;49.450;6.640;2023-03-21T20:37:03;5.13;;;1.60;;
40588;SDS011;26297;49.450;6.640;2023-03-21T20:40:57;1.05;;;0.77;;
40588;SDS011;26297;49.450;6.640;2023-03-21T20:44:14;1.20;;;0.98;;
40588;SDS011;26297;49.450;6.640;2023-03-21T20:47:30;1.40;;;0.90;;
40588;SDS011;26297;49.450;6.640;2023-03-21T23:02:24;2.20;;;1.67;;
40588;SDS011;26297;49.450;6.640;2023-03-21T23:05:36;2.33;;;1.83;;
40588;SDS011;26297;49.450;6.640;2023-03-21T23:34:16;2.28;;;2.10;;
40588;SDS011;26297;49.450;6.640;2023-03-21T23:37:39;2.78;;;2.08;;
40588;SDS011;26297;49.450;6.640;2023-03-21T23:41:42;2.50;;;2.30;;
40588;SDS011;26297;49.450;6.640;2023-03-21T23:50:05;3.35;;;2.10;;
40588;SDS011;26297;49.450;6.640;2023-03-21T23:54:16;4.82;;;2.40;;
